LIMW/AOT METAR and TAF weather

Enter ICAO airport designator
Station Type Date Time Source
LIMW METAR 2019/10/23 13:50 UTC NOAA

LIMW 231350Z AUTO 26003KT 230V310 9999 FEW024/// BKN100/// 18/13 Q1019


Station Type Date Time Source
LIMW Decoded METAR 2019/10/23 13:50 UTC NOAA

Station name not available
Oct 23, 2019 - 09:50 AM EDT / 2019.10.23 1350 UTC
Wind: from the W (260 degrees) at 3 MPH (3 KT) (direction variable):0
Visibility: greater than 7 mile(s):0
Sky conditions: mostly cloudy
Temperature: 64 F (18 C)
Dew Point: 55 F (13 C)
Relative Humidity: 72%
Pressure (altimeter): 30.09 in. Hg (1019 hPa)
ob: LIMW 231350Z AUTO 26003KT 230V310 9999 FEW024/// BKN100/// 18/13 Q1019
cycle: 14

Station Type Date Time Source
LIMW TAF UTC NOAA

Error!

Example: see airport list